createdAt,value
2022-08-28T00:01:06.177Z,21.11
2022-08-28T00:03:33.450Z,21.07
2022-08-28T00:06:01.767Z,21.02
2022-08-28T00:08:30.627Z,20.97
2022-08-28T00:10:58.388Z,20.97
2022-08-28T00:13:25.835Z,20.82
2022-08-28T00:16:01.159Z,20.77
2022-08-28T00:18:31.381Z,20.86
2022-08-28T00:20:59.560Z,20.83
2022-08-28T00:23:30.398Z,20.92
2022-08-28T00:26:32.194Z,20.93
2022-08-28T00:28:59.794Z,20.92
2022-08-28T00:31:27.203Z,20.94
2022-08-28T00:33:54.515Z,20.92
2022-08-28T00:36:22.031Z,20.87
2022-08-28T00:38:49.125Z,20.79
2022-08-28T00:41:17.300Z,20.83
2022-08-28T00:44:07.550Z,20.75
2022-08-28T00:46:34.901Z,20.80
2022-08-28T00:49:02.140Z,20.81
2022-08-28T00:51:47.928Z,20.81
2022-08-28T00:54:15.062Z,20.74
2022-08-28T00:56:42.874Z,20.68
2022-08-28T00:59:17.887Z,20.64
2022-08-28T01:01:47.363Z,20.56
2022-08-28T01:04:17.224Z,20.53
2022-08-28T01:06:48.615Z,20.49
2022-08-28T01:09:18.903Z,20.45
2022-08-28T01:11:51.693Z,20.44
2022-08-28T01:14:23.207Z,20.41
2022-08-28T01:16:57.520Z,20.35
2022-08-28T01:19:39.158Z,20.37
2022-08-28T01:22:20.952Z,20.25
2022-08-28T01:24:51.395Z,20.29
2022-08-28T01:27:19.040Z,20.26
2022-08-28T01:29:47.914Z,20.29
2022-08-28T01:32:29.150Z,20.21
2022-08-28T01:34:56.586Z,20.13
2022-08-28T01:37:24.044Z,20.09
2022-08-28T01:39:51.528Z,19.98
2022-08-28T01:42:18.784Z,19.97
2022-08-28T01:44:46.557Z,19.90
2022-08-28T01:47:13.739Z,19.92
2022-08-28T01:49:40.841Z,19.89
2022-08-28T01:52:09.583Z,19.93
2022-08-28T01:54:39.862Z,19.88
2022-08-28T01:57:08.128Z,19.85
2022-08-28T01:59:35.277Z,19.89
2022-08-28T02:02:02.651Z,19.80
2022-08-28T02:04:32.292Z,19.71
2022-08-28T02:06:59.864Z,19.71
2022-08-28T02:09:27.148Z,19.59
2022-08-28T02:11:55.043Z,19.69
2022-08-28T02:14:22.719Z,19.65
2022-08-28T02:16:51.300Z,19.61
2022-08-28T02:19:18.574Z,19.75
2022-08-28T02:21:45.824Z,19.73
2022-08-28T02:24:13.229Z,19.72
2022-08-28T02:26:40.480Z,19.76
2022-08-28T02:29:07.758Z,19.75
2022-08-28T02:31:34.909Z,19.77
2022-08-28T02:34:02.334Z,19.78
2022-08-28T02:36:29.637Z,19.78
2022-08-28T02:38:58.014Z,19.81
2022-08-28T02:41:25.656Z,19.77
2022-08-28T02:43:53.397Z,19.68
2022-08-28T02:46:20.778Z,19.62
2022-08-28T02:48:47.975Z,19.57
2022-08-28T02:51:15.299Z,19.48
2022-08-28T02:53:42.946Z,19.55
2022-08-28T02:56:10.817Z,19.47
2022-08-28T02:58:39.480Z,19.44
2022-08-28T03:01:11.030Z,19.44
2022-08-28T03:03:40.917Z,19.40
2022-08-28T03:06:10.006Z,19.37
2022-08-28T03:08:37.654Z,19.32
2022-08-28T03:11:04.929Z,19.28
2022-08-28T03:13:32.126Z,19.30
2022-08-28T03:16:04.955Z,19.28
2022-08-28T03:18:36.061Z,19.22
2022-08-28T03:21:10.066Z,19.20
2022-08-28T03:23:39.281Z,19.16
2022-08-28T03:26:09.064Z,19.16
2022-08-28T03:28:40.760Z,19.12
2022-08-28T03:31:11.070Z,19.09
2022-08-28T03:33:38.425Z,19.04
2022-08-28T03:36:13.294Z,19.01
2022-08-28T03:38:42.001Z,19.07
2022-08-28T03:41:38.763Z,19.01
2022-08-28T03:44:07.075Z,19.04
2022-08-28T03:46:37.324Z,19.07
2022-08-28T03:49:05.291Z,19.01
2022-08-28T03:51:34.653Z,19.18
2022-08-28T03:54:02.960Z,19.16
2022-08-28T03:56:31.028Z,19.18
2022-08-28T03:59:01.197Z,19.18
2022-08-28T04:01:29.252Z,19.19
2022-08-28T04:03:57.347Z,19.19
2022-08-28T04:06:24.795Z,19.18
2022-08-28T04:08:53.157Z,19.25
2022-08-28T04:11:22.000Z,19.25
2022-08-28T04:13:51.125Z,19.25
2022-08-28T04:16:19.504Z,19.30
2022-08-28T04:18:48.820Z,19.36
2022-08-28T04:21:20.793Z,19.37
2022-08-28T04:23:48.327Z,19.37
2022-08-28T04:26:19.497Z,19.40
2022-08-28T04:28:47.947Z,19.45
2022-08-28T04:31:16.287Z,19.51
2022-08-28T04:33:44.029Z,19.58
2022-08-28T04:36:14.081Z,19.63
2022-08-28T04:38:44.125Z,19.69
2022-08-28T04:41:13.768Z,19.76
2022-08-28T04:43:42.845Z,19.83
2022-08-28T04:46:14.693Z,19.84
2022-08-28T04:48:42.567Z,19.93
2022-08-28T04:51:12.173Z,19.98
2022-08-28T04:53:39.778Z,20.00
2022-08-28T04:56:09.914Z,20.11
2022-08-28T04:58:38.652Z,20.20
2022-08-28T05:01:08.996Z,20.31
2022-08-28T05:03:36.270Z,20.36
2022-08-28T05:06:03.920Z,20.53
2022-08-28T05:08:31.809Z,20.61
2022-08-28T05:11:12.705Z,20.66
2022-08-28T05:13:40.659Z,20.73
2022-08-28T05:16:07.997Z,20.82
2022-08-28T05:18:36.113Z,20.88
2022-08-28T05:21:03.547Z,21.05
2022-08-28T05:23:30.982Z,21.15
2022-08-28T05:25:58.457Z,21.29
2022-08-28T05:28:25.602Z,21.31
2022-08-28T05:30:53.147Z,21.42
2022-08-28T05:33:21.274Z,21.58
2022-08-28T05:35:48.919Z,21.74
2022-08-28T05:38:17.300Z,21.83
2022-08-28T05:40:47.276Z,22.01
2022-08-28T05:43:16.092Z,22.13
2022-08-28T05:45:43.683Z,22.24
2022-08-28T05:48:12.015Z,22.29
2022-08-28T05:50:47.184Z,22.41
2022-08-28T05:53:18.213Z,22.48
2022-08-28T05:55:45.548Z,22.54
2022-08-28T05:58:33.567Z,22.73
2022-08-28T06:01:07.845Z,22.87
2022-08-28T06:03:36.459Z,23.01
2022-08-28T06:06:05.352Z,23.12
2022-08-28T06:08:33.169Z,23.24
2022-08-28T06:11:02.564Z,23.38
2022-08-28T06:13:30.982Z,23.51
2022-08-28T06:15:59.019Z,23.61
2022-08-28T06:18:27.037Z,23.76
2022-08-28T06:20:54.701Z,23.89
2022-08-28T06:23:24.189Z,24.02
2022-08-28T06:25:52.399Z,24.16
2022-08-28T06:28:22.558Z,24.30
2022-08-28T06:31:17.880Z,24.43
2022-08-28T06:33:40.034Z,24.53
2022-08-28T06:36:07.889Z,24.76
2022-08-28T06:38:35.562Z,24.94
2022-08-28T06:41:02.869Z,25.07
2022-08-28T06:43:30.121Z,25.22
2022-08-28T06:45:58.275Z,25.39
2022-08-28T06:48:28.573Z,25.53
2022-08-28T06:50:57.681Z,25.70
2022-08-28T06:53:29.199Z,25.74
2022-08-28T06:56:07.337Z,25.89
2022-08-28T06:58:38.356Z,26.08
2022-08-28T07:01:12.265Z,26.18
2022-08-28T07:03:44.250Z,26.29
2022-08-28T07:06:14.300Z,26.42
2022-08-28T07:08:43.707Z,26.64
2022-08-28T07:11:18.651Z,26.72
2022-08-28T07:13:46.988Z,26.84
2022-08-28T07:16:16.587Z,26.98
2022-08-28T07:18:45.429Z,27.20
2022-08-28T07:21:13.847Z,27.31
2022-08-28T07:23:42.429Z,27.40
2022-08-28T07:26:12.726Z,27.60
2022-08-28T07:28:40.507Z,27.72
2022-08-28T07:31:18.188Z,27.78
2022-08-28T07:33:46.177Z,27.92
2022-08-28T07:36:29.085Z,27.95
2022-08-28T07:38:59.486Z,28.07
2022-08-28T07:41:32.097Z,28.21
2022-08-28T07:44:18.764Z,28.35
2022-08-28T07:46:46.486Z,28.51
2022-08-28T07:49:17.195Z,28.58
2022-08-28T07:51:45.727Z,28.72
2022-08-28T07:54:17.670Z,28.93
2022-08-28T07:56:46.708Z,29.10
2022-08-28T07:59:16.759Z,29.20
2022-08-28T08:01:47.219Z,29.24
2022-08-28T08:04:16.475Z,29.19
2022-08-28T08:06:45.228Z,29.43
2022-08-28T08:09:15.547Z,29.50
2022-08-28T08:11:43.220Z,29.52
2022-08-28T08:14:11.061Z,29.67
2022-08-28T08:16:42.744Z,29.76
2022-08-28T08:19:14.049Z,29.86
2022-08-28T08:21:43.743Z,29.92
2022-08-28T08:24:13.197Z,30.14
2022-08-28T08:26:59.888Z,30.20
2022-08-28T08:29:31.777Z,30.35
2022-08-28T08:32:06.209Z,30.35
2022-08-28T08:34:38.869Z,30.53
2022-08-28T08:37:07.367Z,30.66
2022-08-28T08:39:36.098Z,30.75
2022-08-28T08:42:07.581Z,30.83
2022-08-28T08:44:38.943Z,30.97
2022-08-28T08:47:13.828Z,31.05
2022-08-28T08:49:53.434Z,31.05
2022-08-28T08:52:32.511Z,31.11
2022-08-28T08:55:31.633Z,31.25
2022-08-28T08:58:19.898Z,31.50
2022-08-28T09:00:58.223Z,31.40
2022-08-28T09:03:53.116Z,31.43
2022-08-28T09:06:34.026Z,31.44
2022-08-28T09:09:05.481Z,31.33
2022-08-28T09:11:56.399Z,31.51
2022-08-28T09:14:34.131Z,31.63
2022-08-28T09:17:02.784Z,31.71
2022-08-28T09:19:30.192Z,31.70
2022-08-28T09:21:57.686Z,31.79
2022-08-28T09:24:32.386Z,31.81
2022-08-28T09:27:04.403Z,31.69
2022-08-28T09:29:38.658Z,31.68
2022-08-28T09:32:23.509Z,31.80
2022-08-28T09:38:27.962Z,31.91
2022-08-28T09:41:29.957Z,31.94
2022-08-28T09:43:57.431Z,32.02
2022-08-28T09:46:32.321Z,31.93
2022-08-28T09:49:29.772Z,31.90
2022-08-28T09:52:01.849Z,32.01
2022-08-28T09:54:39.937Z,32.07
2022-08-28T09:57:08.709Z,32.13
2022-08-28T09:59:35.972Z,32.18
2022-08-28T10:02:29.064Z,32.17
2022-08-28T10:05:08.485Z,32.25
2022-08-28T10:08:03.169Z,32.38
2022-08-28T10:10:34.790Z,32.51
2022-08-28T10:13:09.715Z,32.59
2022-08-28T10:15:52.089Z,32.70
2022-08-28T10:18:28.342Z,32.88
2022-08-28T10:21:13.782Z,32.93
2022-08-28T10:24:02.446Z,32.86
2022-08-28T10:26:35.662Z,32.91
2022-08-28T10:29:03.354Z,32.73
2022-08-28T10:31:40.498Z,32.79
2022-08-28T10:34:26.612Z,32.87
2022-08-28T10:37:39.892Z,32.93
2022-08-28T10:40:24.593Z,33.13
2022-08-28T10:42:59.588Z,33.27
2022-08-28T10:45:28.482Z,33.47
2022-08-28T10:48:01.582Z,33.39
2022-08-28T10:50:47.951Z,33.33
2022-08-28T10:53:56.539Z,33.23
2022-08-28T10:56:30.814Z,33.26
2022-08-28T10:58:59.383Z,33.28
2022-08-28T11:01:31.293Z,33.37
2022-08-28T11:04:04.241Z,33.39
2022-08-28T11:06:42.274Z,33.56
2022-08-28T11:09:25.560Z,33.53
2022-08-28T11:12:19.965Z,33.54
2022-08-28T11:14:51.108Z,33.62
2022-08-28T11:17:33.250Z,33.49
2022-08-28T11:20:13.013Z,33.52
2022-08-28T11:22:50.352Z,33.41
2022-08-28T11:25:43.756Z,33.44
2022-08-28T11:28:22.534Z,33.34
2022-08-28T11:30:59.107Z,33.14
2022-08-28T11:33:41.736Z,33.23
2022-08-28T11:36:10.377Z,33.20
2022-08-28T11:38:43.849Z,33.16
2022-08-28T11:41:21.133Z,33.14
2022-08-28T11:44:10.087Z,33.29
2022-08-28T11:46:38.646Z,33.36
2022-08-28T11:49:34.655Z,33.59
2022-08-28T11:52:23.864Z,33.69
2022-08-28T11:55:26.226Z,33.61
2022-08-28T11:58:17.334Z,33.56
2022-08-28T12:01:11.242Z,33.70
2022-08-28T12:03:44.969Z,33.69
2022-08-28T12:06:13.613Z,33.84
2022-08-28T12:08:59.192Z,33.84
2022-08-28T12:11:42.080Z,33.91
2022-08-28T12:14:29.185Z,33.97
2022-08-28T12:16:59.627Z,34.06
2022-08-28T12:19:52.486Z,34.11
2022-08-28T12:22:27.251Z,34.22
2022-08-28T12:25:04.569Z,34.29
2022-08-28T12:27:32.408Z,34.36
2022-08-28T12:30:02.308Z,34.39
2022-08-28T12:32:56.384Z,34.18
2022-08-28T12:35:29.574Z,34.05
2022-08-28T12:37:57.769Z,34.19
2022-08-28T12:40:28.974Z,34.24
2022-08-28T12:43:07.089Z,34.35
2022-08-28T12:45:42.732Z,34.43
2022-08-28T12:48:34.914Z,34.45
2022-08-28T12:51:06.904Z,34.52
2022-08-28T12:53:48.236Z,34.51
2022-08-28T12:56:19.414Z,34.62
2022-08-28T12:58:47.994Z,34.66
2022-08-28T13:01:24.256Z,34.68
2022-08-28T13:03:57.174Z,34.65
2022-08-28T13:06:30.681Z,34.73
2022-08-28T13:09:04.761Z,34.63
2022-08-28T13:11:36.521Z,34.54
2022-08-28T13:14:04.881Z,34.63
2022-08-28T13:16:43.039Z,34.66
2022-08-28T13:19:27.338Z,34.65
2022-08-28T13:22:02.134Z,34.75
2022-08-28T13:24:44.575Z,34.77
2022-08-28T13:27:12.497Z,34.97
2022-08-28T13:30:04.488Z,34.98
2022-08-28T13:32:40.506Z,35.00
2022-08-28T13:35:23.045Z,34.95
2022-08-28T13:37:54.097Z,34.88
2022-08-28T13:43:15.872Z,34.77
2022-08-28T13:45:45.582Z,34.83
2022-08-28T13:48:15.685Z,34.96
2022-08-28T13:50:47.448Z,34.96
2022-08-28T13:53:17.335Z,35.03
2022-08-28T13:55:45.655Z,34.91
2022-08-28T13:58:14.090Z,34.89
2022-08-28T14:00:45.301Z,34.62
2022-08-28T14:03:31.976Z,34.45
2022-08-28T14:05:59.759Z,34.56
2022-08-28T14:08:27.374Z,34.52
2022-08-28T14:10:55.529Z,34.54
2022-08-28T14:13:27.853Z,34.53
2022-08-28T14:15:57.065Z,34.53
2022-08-28T14:18:26.349Z,34.59
2022-08-28T14:20:53.969Z,34.68
2022-08-28T14:23:21.594Z,34.70
2022-08-28T14:25:49.544Z,34.75
2022-08-28T14:28:18.478Z,34.75
2022-08-28T14:30:47.833Z,34.69
2022-08-28T14:33:18.809Z,34.77
2022-08-28T14:35:49.189Z,34.81
2022-08-28T14:38:16.755Z,34.96
2022-08-28T14:40:44.990Z,34.96
2022-08-28T14:43:13.544Z,34.91
2022-08-28T14:45:49.654Z,34.83
2022-08-28T14:48:19.036Z,34.73
2022-08-28T14:50:48.471Z,34.56
2022-08-28T14:53:17.244Z,34.47
2022-08-28T14:55:47.786Z,34.37
2022-08-28T14:58:16.413Z,34.41
2022-08-28T15:00:47.241Z,34.48
2022-08-28T15:03:16.517Z,34.21
2022-08-28T15:05:44.391Z,33.98
2022-08-28T15:08:15.234Z,34.09
2022-08-28T15:10:43.507Z,33.98
2022-08-28T15:13:15.193Z,33.99
2022-08-28T15:15:43.017Z,34.03
2022-08-28T15:18:11.745Z,34.04
2022-08-28T15:20:44.999Z,33.91
2022-08-28T15:23:14.546Z,33.86
2022-08-28T15:25:41.988Z,33.83
2022-08-28T15:28:09.480Z,33.78
2022-08-28T15:30:37.478Z,33.81
2022-08-28T15:33:05.254Z,33.74
2022-08-28T15:35:34.311Z,33.59
2022-08-28T15:38:02.428Z,33.70
2022-08-28T15:40:49.119Z,33.67
2022-08-28T15:43:17.434Z,33.39
2022-08-28T15:45:45.319Z,33.38
2022-08-28T15:48:13.421Z,33.31
2022-08-28T15:50:41.719Z,33.23
2022-08-28T15:53:10.307Z,33.26
2022-08-28T15:55:37.812Z,33.14
2022-08-28T15:58:07.415Z,33.08
2022-08-28T16:00:42.238Z,33.10
2022-08-28T16:03:10.002Z,33.03
2022-08-28T16:05:40.640Z,32.94
2022-08-28T16:08:10.619Z,32.87
2022-08-28T16:10:37.899Z,32.83
2022-08-28T16:13:06.781Z,32.70
2022-08-28T16:15:34.720Z,32.62
2022-08-28T16:18:02.423Z,32.52
2022-08-28T16:20:29.669Z,32.45
2022-08-28T16:22:57.002Z,32.38
2022-08-28T16:25:24.166Z,32.23
2022-08-28T16:27:51.515Z,32.12
2022-08-28T16:30:19.057Z,32.08
2022-08-28T16:32:47.632Z,32.00
2022-08-28T16:35:16.028Z,31.90
2022-08-28T16:37:44.079Z,31.78
2022-08-28T16:40:12.753Z,31.62
2022-08-28T16:42:42.735Z,31.49
2022-08-28T16:45:19.663Z,31.29
2022-08-28T16:47:46.962Z,31.19
2022-08-28T16:50:15.174Z,31.07
2022-08-28T16:52:43.529Z,30.89
2022-08-28T16:55:11.613Z,30.79
2022-08-28T16:57:39.343Z,30.68
2022-08-28T17:00:12.118Z,30.47
2022-08-28T17:02:41.585Z,30.44
2022-08-28T17:05:09.247Z,30.30
2022-08-28T17:07:36.443Z,30.17
2022-08-28T17:10:04.947Z,30.09
2022-08-28T17:12:32.343Z,29.98
2022-08-28T17:15:01.487Z,29.89
2022-08-28T17:17:28.918Z,29.79
2022-08-28T17:19:58.018Z,29.73
2022-08-28T17:22:32.163Z,29.62
2022-08-28T17:25:03.585Z,29.54
2022-08-28T17:27:32.279Z,29.39
2022-08-28T17:30:01.466Z,29.34
2022-08-28T17:32:28.845Z,29.20
2022-08-28T17:34:55.971Z,29.10
2022-08-28T17:37:24.064Z,29.05
2022-08-28T17:39:51.773Z,28.97
2022-08-28T17:42:19.709Z,28.87
2022-08-28T17:44:47.055Z,28.77
2022-08-28T17:47:14.238Z,28.66
2022-08-28T17:49:41.453Z,28.61
2022-08-28T17:52:08.722Z,28.56
2022-08-28T17:54:35.993Z,28.41
2022-08-28T17:57:03.453Z,28.32
2022-08-28T17:59:32.143Z,28.17
2022-08-28T18:01:59.771Z,28.02
2022-08-28T18:04:27.220Z,27.97
2022-08-28T18:06:55.121Z,27.85
2022-08-28T18:09:24.189Z,27.83
2022-08-28T18:11:53.221Z,27.69
2022-08-28T18:14:21.209Z,27.71
2022-08-28T18:16:48.722Z,27.63
2022-08-28T18:19:16.648Z,27.53
2022-08-28T18:21:44.977Z,27.49
2022-08-28T18:24:13.882Z,27.39
2022-08-28T18:26:43.954Z,27.31
2022-08-28T18:29:11.791Z,27.18
2022-08-28T18:31:41.188Z,27.16
2022-08-28T18:34:09.855Z,27.07
2022-08-28T18:36:37.181Z,26.94
2022-08-28T18:39:04.511Z,26.86
2022-08-28T18:41:35.754Z,26.80
2022-08-28T18:44:14.546Z,26.66
2022-08-28T18:46:44.330Z,26.58
2022-08-28T18:49:14.168Z,26.52
2022-08-28T18:51:43.727Z,26.46
2022-08-28T18:54:13.524Z,26.33
2022-08-28T18:56:44.795Z,26.20
2022-08-28T18:59:12.011Z,26.07
2022-08-28T19:01:39.666Z,26.01
2022-08-28T19:04:07.291Z,25.97
2022-08-28T19:06:35.238Z,25.84
2022-08-28T19:09:05.351Z,25.77
2022-08-28T19:11:33.475Z,25.79
2022-08-28T19:14:03.840Z,25.84
2022-08-28T19:16:32.441Z,25.73
2022-08-28T19:19:00.750Z,25.65
2022-08-28T19:21:29.235Z,25.61
2022-08-28T19:23:57.078Z,25.65
2022-08-28T19:26:26.264Z,25.57
2022-08-28T19:28:54.528Z,25.45
2022-08-28T19:31:23.184Z,25.43
2022-08-28T19:33:50.924Z,25.42
2022-08-28T19:36:19.899Z,25.41
2022-08-28T19:38:47.660Z,25.37
2022-08-28T19:41:15.154Z,25.36
2022-08-28T19:43:44.153Z,25.29
2022-08-28T19:46:20.624Z,25.23
2022-08-28T19:48:53.516Z,25.10
2022-08-28T19:51:24.085Z,25.21
2022-08-28T19:53:59.034Z,25.13
2022-08-28T19:56:28.209Z,25.13
2022-08-28T19:58:58.674Z,25.09
2022-08-28T20:01:32.992Z,25.07
2022-08-28T20:04:00.921Z,25.04
2022-08-28T20:06:31.312Z,24.94
2022-08-28T20:08:59.351Z,24.93
2022-08-28T20:11:30.458Z,24.71
2022-08-28T20:14:04.475Z,24.65
2022-08-28T20:16:35.660Z,24.51
2022-08-28T20:19:05.412Z,24.49
2022-08-28T20:21:37.226Z,24.40
2022-08-28T20:24:07.767Z,24.39
2022-08-28T20:26:35.945Z,24.31
2022-08-28T20:29:04.446Z,24.26
2022-08-28T20:31:31.851Z,24.21
2022-08-28T20:33:59.336Z,24.04
2022-08-28T20:36:27.383Z,23.98
2022-08-28T20:38:54.896Z,23.94
2022-08-28T20:41:22.918Z,23.87
2022-08-28T20:43:50.294Z,23.90
2022-08-28T20:46:18.179Z,23.82
2022-08-28T20:48:46.136Z,23.76
2022-08-28T20:51:13.354Z,23.71
2022-08-28T20:53:40.737Z,23.56
2022-08-28T20:56:10.339Z,23.51
2022-08-28T20:58:38.002Z,23.46
2022-08-28T21:01:05.860Z,23.48
2022-08-28T21:03:33.170Z,23.41
2022-08-28T21:06:00.555Z,23.37
2022-08-28T21:08:27.841Z,23.34
2022-08-28T21:10:55.235Z,23.26
2022-08-28T21:13:22.348Z,23.20
2022-08-28T21:15:49.733Z,23.14
2022-08-28T21:18:16.916Z,23.22
2022-08-28T21:20:44.733Z,23.18
2022-08-28T21:23:11.991Z,23.18
2022-08-28T21:25:41.489Z,23.16
2022-08-28T21:28:09.137Z,23.16
2022-08-28T21:30:36.350Z,23.15
2022-08-28T21:33:03.520Z,23.08
2022-08-28T21:35:30.863Z,23.13
2022-08-28T21:37:58.172Z,23.12
2022-08-28T21:40:25.184Z,23.11
2022-08-28T21:42:52.661Z,23.02
2022-08-28T21:45:20.130Z,23.03
2022-08-28T21:47:47.448Z,23.01
2022-08-28T21:50:14.767Z,22.91
2022-08-28T21:52:42.053Z,22.84
2022-08-28T21:55:13.489Z,22.76
2022-08-28T21:57:41.030Z,22.75
2022-08-28T22:00:15.029Z,22.70
2022-08-28T22:02:42.328Z,22.77
2022-08-28T22:05:10.908Z,22.74
2022-08-28T22:07:38.397Z,22.75
2022-08-28T22:10:06.470Z,22.69
2022-08-28T22:12:34.169Z,22.69
2022-08-28T22:15:01.415Z,22.66
2022-08-28T22:17:30.885Z,22.62
2022-08-28T22:19:58.449Z,22.60
2022-08-28T22:22:44.129Z,22.55
2022-08-28T22:25:11.456Z,22.52
2022-08-28T22:27:39.124Z,22.46
2022-08-28T22:30:06.715Z,22.20
2022-08-28T22:32:33.996Z,22.32
2022-08-28T22:35:01.142Z,22.30
2022-08-28T22:37:28.518Z,22.29
2022-08-28T22:39:55.920Z,22.24
2022-08-28T22:42:23.246Z,22.17
2022-08-28T22:44:50.436Z,22.12
2022-08-28T22:47:19.019Z,22.07
2022-08-28T22:49:47.089Z,22.00
2022-08-28T22:52:15.546Z,22.03
2022-08-28T22:54:43.483Z,21.96
2022-08-28T22:57:10.981Z,21.83
2022-08-28T22:59:38.523Z,21.93
2022-08-28T23:02:05.853Z,21.86
2022-08-28T23:04:34.435Z,21.90
2022-08-28T23:07:01.948Z,21.83
2022-08-28T23:09:29.110Z,21.81
2022-08-28T23:12:00.026Z,21.79
2022-08-28T23:14:27.773Z,21.75
2022-08-28T23:16:56.051Z,21.67
2022-08-28T23:19:23.850Z,21.67
2022-08-28T23:21:51.575Z,21.48
2022-08-28T23:24:18.711Z,21.55
2022-08-28T23:26:47.818Z,21.56
2022-08-28T23:29:19.054Z,21.52
2022-08-28T23:31:47.009Z,21.43
2022-08-28T23:34:15.474Z,21.33
2022-08-28T23:36:43.568Z,21.34
2022-08-28T23:39:11.434Z,21.29
2022-08-28T23:41:38.997Z,21.22
2022-08-28T23:44:09.007Z,21.24
2022-08-28T23:46:41.119Z,21.20
2022-08-28T23:49:09.572Z,21.22
2022-08-28T23:51:36.788Z,21.24
2022-08-28T23:54:04.270Z,21.19
2022-08-28T23:56:33.731Z,21.21
2022-08-28T23:59:01.171Z,21.20
